sensor_id;sensor_type;location;lat;lon;timestamp;pressure;altitude;pressure_sealevel;temperature;humidity
71504;BME280;59323;50.874;7.028;2022-11-20T00:01:10;100930.81;;;2.44;86.51
71504;BME280;59323;50.874;7.028;2022-11-20T00:03:36;100924.06;;;2.46;85.54
71504;BME280;59323;50.874;7.028;2022-11-20T00:06:04;100924.97;;;2.42;86.08
71504;BME280;59323;50.874;7.028;2022-11-20T00:08:29;100926.06;;;2.41;86.22
71504;BME280;59323;50.874;7.028;2022-11-20T00:10:55;100929.84;;;2.40;86.33
71504;BME280;59323;50.874;7.028;2022-11-20T00:13:20;100926.84;;;2.41;86.75
71504;BME280;59323;50.874;7.028;2022-11-20T00:15:45;100928.44;;;2.42;86.80
71504;BME280;59323;50.874;7.028;2022-11-20T00:18:11;100925.16;;;2.45;86.61
71504;BME280;59323;50.874;7.028;2022-11-20T00:20:36;100921.38;;;2.46;86.57
71504;BME280;59323;50.874;7.028;2022-11-20T00:23:01;100916.00;;;2.46;86.70
71504;BME280;59323;50.874;7.028;2022-11-20T00:25:27;100917.28;;;2.49;86.04
71504;BME280;59323;50.874;7.028;2022-11-20T00:27:52;100922.97;;;2.47;86.07
71504;BME280;59323;50.874;7.028;2022-11-20T00:30:17;100926.25;;;2.44;85.87
71504;BME280;59323;50.874;7.028;2022-11-20T00:32:43;100932.72;;;2.43;86.29
71504;BME280;59323;50.874;7.028;2022-11-20T00:35:08;100942.81;;;2.46;86.60
71504;BME280;59323;50.874;7.028;2022-11-20T00:37:33;100938.75;;;2.49;85.10
71504;BME280;59323;50.874;7.028;2022-11-20T00:39:59;100928.63;;;2.46;85.87
71504;BME280;59323;50.874;7.028;2022-11-20T00:42:24;100922.28;;;2.42;85.85
71504;BME280;59323;50.874;7.028;2022-11-20T00:44:49;100910.59;;;2.38;85.22
71504;BME280;59323;50.874;7.028;2022-11-20T00:47:15;100909.97;;;2.41;85.66
71504;BME280;59323;50.874;7.028;2022-11-20T00:49:40;100918.03;;;2.41;84.93
71504;BME280;59323;50.874;7.028;2022-11-20T00:52:05;100910.16;;;2.44;85.09
71504;BME280;59323;50.874;7.028;2022-11-20T00:54:31;100904.13;;;2.39;85.05
71504;BME280;59323;50.874;7.028;2022-11-20T00:56:56;100909.78;;;2.37;85.42
71504;BME280;59323;50.874;7.028;2022-11-20T00:59:21;100916.75;;;2.38;85.96
71504;BME280;59323;50.874;7.028;2022-11-20T01:01:47;100913.25;;;2.38;84.85
71504;BME280;59323;50.874;7.028;2022-11-20T01:04:12;100917.66;;;2.34;85.50
71504;BME280;59323;50.874;7.028;2022-11-20T01:06:39;100914.66;;;2.35;85.26
71504;BME280;59323;50.874;7.028;2022-11-20T01:09:09;100925.09;;;2.37;85.14
71504;BME280;59323;50.874;7.028;2022-11-20T01:11:37;100917.16;;;2.32;84.90
71504;BME280;59323;50.874;7.028;2022-11-20T01:14:05;100918.75;;;2.33;85.77
71504;BME280;59323;50.874;7.028;2022-11-20T01:16:40;100914.19;;;2.33;85.63
71504;BME280;59323;50.874;7.028;2022-11-20T01:19:13;100922.53;;;2.32;85.41
71504;BME280;59323;50.874;7.028;2022-11-20T01:21:42;100918.75;;;2.33;85.20
71504;BME280;59323;50.874;7.028;2022-11-20T01:24:10;100924.28;;;2.36;85.92
71504;BME280;59323;50.874;7.028;2022-11-20T01:26:38;100916.56;;;2.35;85.67
71504;BME280;59323;50.874;7.028;2022-11-20T01:29:05;100918.63;;;2.38;84.88
71504;BME280;59323;50.874;7.028;2022-11-20T01:31:36;100916.75;;;2.38;85.14
71504;BME280;59323;50.874;7.028;2022-11-20T01:34:13;100910.88;;;2.36;85.72
71504;BME280;59323;50.874;7.028;2022-11-20T01:36:40;100913.88;;;2.35;85.16
71504;BME280;59323;50.874;7.028;2022-11-20T01:39:10;100913.44;;;2.41;85.14
71504;BME280;59323;50.874;7.028;2022-11-20T01:41:35;100914.53;;;2.40;84.92
71504;BME280;59323;50.874;7.028;2022-11-20T01:44:22;100918.81;;;2.41;85.51
71504;BME280;59323;50.874;7.028;2022-11-20T01:46:59;100919.00;;;2.45;85.05
71504;BME280;59323;50.874;7.028;2022-11-20T01:49:42;100919.47;;;2.47;84.79
71504;BME280;59323;50.874;7.028;2022-11-20T01:52:39;100910.66;;;2.46;84.65
71504;BME280;59323;50.874;7.028;2022-11-20T01:55:07;100904.63;;;2.41;83.16
71504;BME280;59323;50.874;7.028;2022-11-20T01:57:34;100906.19;;;2.42;83.76
71504;BME280;59323;50.874;7.028;2022-11-20T02:00:09;100893.88;;;2.41;84.58
71504;BME280;59323;50.874;7.028;2022-11-20T02:02:37;100889.63;;;2.40;83.92
71504;BME280;59323;50.874;7.028;2022-11-20T02:05:31;100883.91;;;2.33;83.75
71504;BME280;59323;50.874;7.028;2022-11-20T02:07:59;100884.19;;;2.31;83.61
71504;BME280;59323;50.874;7.028;2022-11-20T02:10:27;100873.16;;;2.33;83.88
71504;BME280;59323;50.874;7.028;2022-11-20T02:12:53;100874.88;;;2.29;84.68
71504;BME280;59323;50.874;7.028;2022-11-20T02:15:37;100868.84;;;2.23;84.35
71504;BME280;59323;50.874;7.028;2022-11-20T02:18:04;100871.84;;;2.21;84.45
71504;BME280;59323;50.874;7.028;2022-11-20T02:20:30;100868.19;;;2.17;84.78
71504;BME280;59323;50.874;7.028;2022-11-20T02:22:57;100875.13;;;2.18;85.75
71504;BME280;59323;50.874;7.028;2022-11-20T02:25:26;100883.78;;;2.15;85.63
71504;BME280;59323;50.874;7.028;2022-11-20T02:27:52;100878.03;;;2.08;85.36
71504;BME280;59323;50.874;7.028;2022-11-20T02:30:18;100885.16;;;2.13;85.57
71504;BME280;59323;50.874;7.028;2022-11-20T02:32:43;100889.25;;;2.10;85.25
71504;BME280;59323;50.874;7.028;2022-11-20T02:35:38;100889.13;;;2.15;86.15
71504;BME280;59323;50.874;7.028;2022-11-20T02:37:57;100883.47;;;2.17;86.55
71504;BME280;59323;50.874;7.028;2022-11-20T02:40:24;100892.31;;;2.17;85.67
71504;BME280;59323;50.874;7.028;2022-11-20T02:42:56;100886.63;;;2.19;85.53
71504;BME280;59323;50.874;7.028;2022-11-20T02:45:22;100880.47;;;2.18;85.60
71504;BME280;59323;50.874;7.028;2022-11-20T02:47:48;100877.31;;;2.16;84.75
71504;BME280;59323;50.874;7.028;2022-11-20T02:50:14;100875.13;;;2.18;85.23
71504;BME280;59323;50.874;7.028;2022-11-20T02:52:39;100865.00;;;2.15;85.78
71504;BME280;59323;50.874;7.028;2022-11-20T02:55:05;100858.97;;;2.10;85.79
71504;BME280;59323;50.874;7.028;2022-11-20T02:57:31;100860.44;;;2.16;86.03
71504;BME280;59323;50.874;7.028;2022-11-20T02:59:56;100865.81;;;2.16;86.23
71504;BME280;59323;50.874;7.028;2022-11-20T03:02:21;100858.84;;;2.15;87.00
71504;BME280;59323;50.874;7.028;2022-11-20T03:04:46;100864.22;;;2.15;86.60
71504;BME280;59323;50.874;7.028;2022-11-20T03:07:12;100860.63;;;2.19;87.50
71504;BME280;59323;50.874;7.028;2022-11-20T03:09:37;100857.16;;;2.19;87.20
71504;BME280;59323;50.874;7.028;2022-11-20T03:12:03;100853.06;;;2.21;86.59
71504;BME280;59323;50.874;7.028;2022-11-20T03:14:28;100849.91;;;2.19;86.63
71504;BME280;59323;50.874;7.028;2022-11-20T03:16:53;100843.75;;;2.19;87.12
71504;BME280;59323;50.874;7.028;2022-11-20T03:19:20;100855.75;;;2.21;87.41
71504;BME280;59323;50.874;7.028;2022-11-20T03:21:45;100856.06;;;2.20;87.23
71504;BME280;59323;50.874;7.028;2022-11-20T03:24:10;100860.50;;;2.25;87.46
71504;BME280;59323;50.874;7.028;2022-11-20T03:26:36;100851.47;;;2.20;87.69
71504;BME280;59323;50.874;7.028;2022-11-20T03:29:03;100851.34;;;2.26;87.61
71504;BME280;59323;50.874;7.028;2022-11-20T03:31:32;100848.50;;;2.22;87.73
71504;BME280;59323;50.874;7.028;2022-11-20T03:33:58;100850.56;;;2.25;87.98
71504;BME280;59323;50.874;7.028;2022-11-20T03:36:24;100847.28;;;2.28;88.41
71504;BME280;59323;50.874;7.028;2022-11-20T03:38:50;100850.75;;;2.29;88.16
71504;BME280;59323;50.874;7.028;2022-11-20T03:41:20;100857.38;;;2.31;87.80
71504;BME280;59323;50.874;7.028;2022-11-20T03:43:50;100851.06;;;2.27;88.32
71504;BME280;59323;50.874;7.028;2022-11-20T03:46:16;100850.44;;;2.30;88.60
71504;BME280;59323;50.874;7.028;2022-11-20T03:48:42;100849.16;;;2.28;88.72
71504;BME280;59323;50.874;7.028;2022-11-20T03:51:08;100845.06;;;2.30;89.07
71504;BME280;59323;50.874;7.028;2022-11-20T03:53:33;100848.25;;;2.32;89.47
71504;BME280;59323;50.874;7.028;2022-11-20T03:55:59;100842.09;;;2.32;88.92
71504;BME280;59323;50.874;7.028;2022-11-20T03:58:24;100835.63;;;2.33;88.56
71504;BME280;59323;50.874;7.028;2022-11-20T04:00:49;100839.09;;;2.33;88.97
71504;BME280;59323;50.874;7.028;2022-11-20T04:03:15;100833.25;;;2.31;89.38
71504;BME280;59323;50.874;7.028;2022-11-20T04:05:40;100828.38;;;2.33;88.94
71504;BME280;59323;50.874;7.028;2022-11-20T04:08:12;100835.31;;;2.34;88.97
71504;BME280;59323;50.874;7.028;2022-11-20T04:10:37;100827.75;;;2.36;88.99
71504;BME280;59323;50.874;7.028;2022-11-20T04:13:02;100827.59;;;2.33;89.31
71504;BME280;59323;50.874;7.028;2022-11-20T04:15:28;100831.72;;;2.39;89.55
71504;BME280;59323;50.874;7.028;2022-11-20T04:17:54;100831.41;;;2.40;89.64
71504;BME280;59323;50.874;7.028;2022-11-20T04:20:20;100823.69;;;2.39;89.36
71504;BME280;59323;50.874;7.028;2022-11-20T04:22:45;100818.00;;;2.40;89.10
71504;BME280;59323;50.874;7.028;2022-11-20T04:25:11;100822.88;;;2.38;89.38
71504;BME280;59323;50.874;7.028;2022-11-20T04:27:36;100816.56;;;2.34;88.74
71504;BME280;59323;50.874;7.028;2022-11-20T04:30:01;100817.84;;;2.37;89.43
71504;BME280;59323;50.874;7.028;2022-11-20T04:32:27;100817.84;;;2.37;89.19
71504;BME280;59323;50.874;7.028;2022-11-20T04:34:52;100824.78;;;2.38;89.04
71504;BME280;59323;50.874;7.028;2022-11-20T04:37:18;100827.28;;;2.34;88.73
71504;BME280;59323;50.874;7.028;2022-11-20T04:39:44;100831.53;;;2.35;88.74
71504;BME280;59323;50.874;7.028;2022-11-20T04:42:10;100823.03;;;2.33;89.04
71504;BME280;59323;50.874;7.028;2022-11-20T04:44:54;100820.66;;;2.32;89.16
71504;BME280;59323;50.874;7.028;2022-11-20T04:47:19;100817.66;;;2.33;89.44
71504;BME280;59323;50.874;7.028;2022-11-20T04:49:44;100819.72;;;2.36;89.64
71504;BME280;59323;50.874;7.028;2022-11-20T04:52:10;100813.09;;;2.34;89.59
71504;BME280;59323;50.874;7.028;2022-11-20T04:54:35;100818.13;;;2.35;89.74
71504;BME280;59323;50.874;7.028;2022-11-20T04:57:00;100827.75;;;2.36;89.29
71504;BME280;59323;50.874;7.028;2022-11-20T04:59:26;100820.81;;;2.35;90.00
71504;BME280;59323;50.874;7.028;2022-11-20T05:01:51;100834.41;;;2.39;89.75
71504;BME280;59323;50.874;7.028;2022-11-20T05:04:16;100830.75;;;2.35;89.87
71504;BME280;59323;50.874;7.028;2022-11-20T05:06:42;100838.78;;;2.35;90.15
71504;BME280;59323;50.874;7.028;2022-11-20T05:09:07;100840.56;;;2.39;90.08
71504;BME280;59323;50.874;7.028;2022-11-20T05:11:33;100833.31;;;2.40;89.91
71504;BME280;59323;50.874;7.028;2022-11-20T05:13:58;100843.59;;;2.46;90.15
71504;BME280;59323;50.874;7.028;2022-11-20T05:16:25;100848.34;;;2.49;90.54
71504;BME280;59323;50.874;7.028;2022-11-20T05:18:52;100847.72;;;2.52;89.66
71504;BME280;59323;50.874;7.028;2022-11-20T05:21:18;100839.38;;;2.54;90.24
71504;BME280;59323;50.874;7.028;2022-11-20T05:23:44;100840.47;;;2.53;89.58
71504;BME280;59323;50.874;7.028;2022-11-20T05:26:18;100837.97;;;2.57;89.24
71504;BME280;59323;50.874;7.028;2022-11-20T05:28:44;100834.31;;;2.52;89.94
71504;BME280;59323;50.874;7.028;2022-11-20T05:31:12;100837.50;;;2.54;90.03
71504;BME280;59323;50.874;7.028;2022-11-20T05:33:40;100835.59;;;2.55;90.47
71504;BME280;59323;50.874;7.028;2022-11-20T05:36:06;100839.38;;;2.54;90.74
71504;BME280;59323;50.874;7.028;2022-11-20T05:38:32;100837.97;;;2.57;90.60
71504;BME280;59323;50.874;7.028;2022-11-20T05:41:11;100834.81;;;2.54;90.97
71504;BME280;59323;50.874;7.028;2022-11-20T05:43:40;100844.13;;;2.57;90.98
71504;BME280;59323;50.874;7.028;2022-11-20T05:46:07;100841.66;;;2.61;91.02
71504;BME280;59323;50.874;7.028;2022-11-20T05:48:34;100832.00;;;2.60;90.99
71504;BME280;59323;50.874;7.028;2022-11-20T05:51:01;100838.44;;;2.59;90.90
71504;BME280;59323;50.874;7.028;2022-11-20T05:53:27;100832.28;;;2.58;91.02
71504;BME280;59323;50.874;7.028;2022-11-20T05:56:05;100838.97;;;2.61;90.97
71504;BME280;59323;50.874;7.028;2022-11-20T05:58:31;100833.09;;;2.59;91.05
71504;BME280;59323;50.874;7.028;2022-11-20T06:01:05;100841.13;;;2.59;91.16
71504;BME280;59323;50.874;7.028;2022-11-20T06:03:31;100844.13;;;2.57;90.78
71504;BME280;59323;50.874;7.028;2022-11-20T06:05:58;100845.84;;;2.53;90.64
71504;BME280;59323;50.874;7.028;2022-11-20T06:08:24;100843.94;;;2.53;90.55
71504;BME280;59323;50.874;7.028;2022-11-20T06:10:49;100842.69;;;2.51;90.45
71504;BME280;59323;50.874;7.028;2022-11-20T06:13:14;100837.63;;;2.49;90.78
71504;BME280;59323;50.874;7.028;2022-11-20T06:15:40;100843.78;;;2.50;90.56
71504;BME280;59323;50.874;7.028;2022-11-20T06:18:05;100830.97;;;2.47;90.24
71504;BME280;59323;50.874;7.028;2022-11-20T06:20:30;100830.50;;;2.45;90.06
71504;BME280;59323;50.874;7.028;2022-11-20T06:22:56;100827.03;;;2.44;90.73
71504;BME280;59323;50.874;7.028;2022-11-20T06:25:21;100830.50;;;2.45;90.92
71504;BME280;59323;50.874;7.028;2022-11-20T06:27:46;100828.91;;;2.44;90.73
71504;BME280;59323;50.874;7.028;2022-11-20T06:30:12;100835.56;;;2.46;90.63
71504;BME280;59323;50.874;7.028;2022-11-20T06:32:37;100835.56;;;2.46;90.63
71504;BME280;59323;50.874;7.028;2022-11-20T06:35:03;100836.66;;;2.45;91.00
71504;BME280;59323;50.874;7.028;2022-11-20T06:37:28;100836.03;;;2.48;90.68
71504;BME280;59323;50.874;7.028;2022-11-20T06:39:53;100832.25;;;2.49;90.41
71504;BME280;59323;50.874;7.028;2022-11-20T06:42:19;100840.13;;;2.46;90.27
71504;BME280;59323;50.874;7.028;2022-11-20T06:44:44;100840.13;;;2.46;90.30
71504;BME280;59323;50.874;7.028;2022-11-20T06:47:09;100844.38;;;2.47;90.32
71504;BME280;59323;50.874;7.028;2022-11-20T06:49:35;100846.28;;;2.46;90.85
71504;BME280;59323;50.874;7.028;2022-11-20T06:52:02;100850.84;;;2.46;90.70
71504;BME280;59323;50.874;7.028;2022-11-20T06:54:27;100854.81;;;2.48;90.60
71504;BME280;59323;50.874;7.028;2022-11-20T06:56:53;100852.13;;;2.48;90.50
71504;BME280;59323;50.874;7.028;2022-11-20T06:59:18;100849.94;;;2.50;90.16
71504;BME280;59323;50.874;7.028;2022-11-20T07:01:43;100859.06;;;2.49;90.93
71504;BME280;59323;50.874;7.028;2022-11-20T07:04:08;100850.25;;;2.49;90.51
71504;BME280;59323;50.874;7.028;2022-11-20T07:06:34;100846.47;;;2.50;90.37
71504;BME280;59323;50.874;7.028;2022-11-20T07:08:59;100843.13;;;2.44;90.35
71504;BME280;59323;50.874;7.028;2022-11-20T07:11:25;100860.66;;;2.50;90.20
71504;BME280;59323;50.874;7.028;2022-11-20T07:13:50;100870.28;;;2.51;90.48
71504;BME280;59323;50.874;7.028;2022-11-20T07:16:16;100872.47;;;2.49;90.25
71504;BME280;59323;50.874;7.028;2022-11-20T07:18:41;100873.28;;;2.50;90.30
71504;BME280;59323;50.874;7.028;2022-11-20T07:21:08;100861.75;;;2.49;90.33
71504;BME280;59323;50.874;7.028;2022-11-20T07:23:34;100865.22;;;2.50;90.58
71504;BME280;59323;50.874;7.028;2022-11-20T07:26:07;100875.66;;;2.51;90.56
71504;BME280;59323;50.874;7.028;2022-11-20T07:28:35;100877.09;;;2.58;90.85
71504;BME280;59323;50.874;7.028;2022-11-20T07:31:01;100878.09;;;2.62;90.78
71504;BME280;59323;50.874;7.028;2022-11-20T07:33:27;100878.59;;;2.64;91.05
71504;BME280;59323;50.874;7.028;2022-11-20T07:35:52;100880.34;;;2.68;90.56
71504;BME280;59323;50.874;7.028;2022-11-20T07:38:17;100873.56;;;2.71;90.72
71504;BME280;59323;50.874;7.028;2022-11-20T07:40:43;100871.69;;;2.71;90.58
71504;BME280;59323;50.874;7.028;2022-11-20T07:43:09;100872.47;;;2.72;90.87
71504;BME280;59323;50.874;7.028;2022-11-20T07:45:34;100873.75;;;2.74;90.64
71504;BME280;59323;50.874;7.028;2022-11-20T07:47:59;100880.72;;;2.75;90.29
71504;BME280;59323;50.874;7.028;2022-11-20T07:50:25;100883.56;;;2.79;90.36
71504;BME280;59323;50.874;7.028;2022-11-20T07:52:50;100867.16;;;2.80;90.22
71504;BME280;59323;50.874;7.028;2022-11-20T07:55:15;100871.72;;;2.80;90.52
71504;BME280;59323;50.874;7.028;2022-11-20T07:57:43;100869.84;;;2.80;90.43
71504;BME280;59323;50.874;7.028;2022-11-20T08:00:10;100865.75;;;2.83;90.58
71504;BME280;59323;50.874;7.028;2022-11-20T08:02:40;100864.34;;;2.85;90.76
71504;BME280;59323;50.874;7.028;2022-11-20T08:05:06;100873.34;;;2.90;90.65
71504;BME280;59323;50.874;7.028;2022-11-20T08:07:42;100876.50;;;2.92;90.69
71504;BME280;59323;50.874;7.028;2022-11-20T08:10:09;100873.03;;;2.91;90.95
71504;BME280;59323;50.874;7.028;2022-11-20T08:12:35;100874.63;;;2.92;90.89
71504;BME280;59323;50.874;7.028;2022-11-20T08:15:22;100867.50;;;2.88;90.57
71504;BME280;59323;50.874;7.028;2022-11-20T08:17:47;100871.47;;;2.90;90.67
71504;BME280;59323;50.874;7.028;2022-11-20T08:20:12;100868.47;;;2.92;90.56
71504;BME280;59323;50.874;7.028;2022-11-20T08:22:38;100868.94;;;2.94;90.70
71504;BME280;59323;50.874;7.028;2022-11-20T08:25:03;100868.94;;;2.94;91.22
71504;BME280;59323;50.874;7.028;2022-11-20T08:27:31;100861.69;;;2.94;90.73
71504;BME280;59323;50.874;7.028;2022-11-20T08:29:56;100870.69;;;2.98;90.67
71504;BME280;59323;50.874;7.028;2022-11-20T08:32:22;100875.59;;;2.96;89.81
71504;BME280;59323;50.874;7.028;2022-11-20T08:34:47;100873.22;;;2.95;89.71
71504;BME280;59323;50.874;7.028;2022-11-20T08:37:12;100864.69;;;2.93;90.58
71504;BME280;59323;50.874;7.028;2022-11-20T08:39:38;100876.06;;;2.98;89.87
71504;BME280;59323;50.874;7.028;2022-11-20T08:42:07;100871.19;;;3.00;90.30
71504;BME280;59323;50.874;7.028;2022-11-20T08:44:32;100872.75;;;3.01;90.38
71504;BME280;59323;50.874;7.028;2022-11-20T08:46:58;100876.41;;;3.05;90.07
71504;BME280;59323;50.874;7.028;2022-11-20T08:49:25;100871.53;;;3.07;90.33
71504;BME280;59323;50.874;7.028;2022-11-20T08:51:50;100874.69;;;3.09;90.13
71504;BME280;59323;50.874;7.028;2022-11-20T08:54:18;100870.44;;;3.08;89.88
71504;BME280;59323;50.874;7.028;2022-11-20T08:56:46;100875.19;;;3.11;90.11
71504;BME280;59323;50.874;7.028;2022-11-20T08:59:12;100874.25;;;3.16;90.50
71504;BME280;59323;50.874;7.028;2022-11-20T09:01:39;100879.00;;;3.19;90.64
71504;BME280;59323;50.874;7.028;2022-11-20T09:04:05;100878.38;;;3.22;91.03
71504;BME280;59323;50.874;7.028;2022-11-20T09:06:30;100876.94;;;3.25;90.96
71504;BME280;59323;50.874;7.028;2022-11-20T09:08:56;100878.84;;;3.24;90.06
71504;BME280;59323;50.874;7.028;2022-11-20T09:11:22;100879.84;;;3.28;90.23
71504;BME280;59323;50.874;7.028;2022-11-20T09:13:50;100874.63;;;3.32;90.67
71504;BME280;59323;50.874;7.028;2022-11-20T09:16:15;100871.00;;;3.36;90.39
71504;BME280;59323;50.874;7.028;2022-11-20T09:18:41;100864.84;;;3.36;89.92
71504;BME280;59323;50.874;7.028;2022-11-20T09:21:10;100855.69;;;3.37;89.98
71504;BME280;59323;50.874;7.028;2022-11-20T09:23:37;100863.28;;;3.43;89.77
71504;BME280;59323;50.874;7.028;2022-11-20T09:26:08;100856.19;;;3.47;88.89
71504;BME280;59323;50.874;7.028;2022-11-20T09:28:34;100852.88;;;3.50;88.61
71504;BME280;59323;50.874;7.028;2022-11-20T09:30:59;100850.97;;;3.51;88.48
71504;BME280;59323;50.874;7.028;2022-11-20T09:33:25;100858.41;;;3.54;88.68
71504;BME280;59323;50.874;7.028;2022-11-20T09:35:50;100852.88;;;3.59;88.46
71504;BME280;59323;50.874;7.028;2022-11-20T09:38:16;100846.88;;;3.62;89.59
71504;BME280;59323;50.874;7.028;2022-11-20T09:40:53;100846.72;;;3.67;89.05
71504;BME280;59323;50.874;7.028;2022-11-20T09:43:27;100845.63;;;3.68;88.43
71504;BME280;59323;50.874;7.028;2022-11-20T09:54:00;100858.13;;;3.81;87.02
71504;BME280;59323;50.874;7.028;2022-11-20T09:56:28;100855.44;;;3.81;87.79
71504;BME280;59323;50.874;7.028;2022-11-20T09:59:02;100845.47;;;3.82;87.44
71504;BME280;59323;50.874;7.028;2022-11-20T10:01:36;100853.84;;;3.80;87.42
71504;BME280;59323;50.874;7.028;2022-11-20T10:04:18;100852.09;;;3.76;87.83
71504;BME280;59323;50.874;7.028;2022-11-20T10:07:00;100848.63;;;3.75;88.51
71504;BME280;59323;50.874;7.028;2022-11-20T10:12:12;100853.69;;;3.77;88.04
71504;BME280;59323;50.874;7.028;2022-11-20T10:15:10;100853.84;;;3.80;88.12
71504;BME280;59323;50.874;7.028;2022-11-20T10:17:50;100846.56;;;3.81;88.70
71504;BME280;59323;50.874;7.028;2022-11-20T10:25:38;100834.44;;;3.92;87.95
71504;BME280;59323;50.874;7.028;2022-11-20T10:30:37;100823.69;;;3.92;88.06
71504;BME280;59323;50.874;7.028;2022-11-20T10:35:41;100801.38;;;3.92;88.04
71504;BME280;59323;50.874;7.028;2022-11-20T10:38:23;100802.63;;;4.03;88.38
71504;BME280;59323;50.874;7.028;2022-11-20T10:41:01;100791.88;;;4.11;86.69
71504;BME280;59323;50.874;7.028;2022-11-20T10:43:48;100792.66;;;4.12;87.11
71504;BME280;59323;50.874;7.028;2022-11-20T10:46:20;100797.06;;;4.17;87.25
71504;BME280;59323;50.874;7.028;2022-11-20T10:48:48;100784.59;;;4.12;87.41
71504;BME280;59323;50.874;7.028;2022-11-20T10:56:52;100787.72;;;4.23;87.54
71504;BME280;59323;50.874;7.028;2022-11-20T11:02:19;100767.31;;;4.22;87.22
71504;BME280;59323;50.874;7.028;2022-11-20T11:04:48;100773.03;;;4.20;88.12
71504;BME280;59323;50.874;7.028;2022-11-20T11:09:46;100761.16;;;4.21;87.37
71504;BME280;59323;50.874;7.028;2022-11-20T11:12:12;100760.69;;;4.19;87.27
71504;BME280;59323;50.874;7.028;2022-11-20T11:14:44;100741.53;;;4.21;87.83
71504;BME280;59323;50.874;7.028;2022-11-20T11:19:57;100734.41;;;4.25;88.60
71504;BME280;59323;50.874;7.028;2022-11-20T11:22:22;100730.28;;;4.27;87.80
71504;BME280;59323;50.874;7.028;2022-11-20T11:24:52;100737.25;;;4.28;88.68
71504;BME280;59323;50.874;7.028;2022-11-20T11:27:18;100734.38;;;4.33;87.99
71504;BME280;59323;50.874;7.028;2022-11-20T11:29:44;100728.53;;;4.31;87.83
71504;BME280;59323;50.874;7.028;2022-11-20T11:32:15;100727.53;;;4.44;88.05
71504;BME280;59323;50.874;7.028;2022-11-20T11:34:42;100722.16;;;4.44;88.82
71504;BME280;59323;50.874;7.028;2022-11-20T11:37:18;100722.59;;;4.55;88.53
71504;BME280;59323;50.874;7.028;2022-11-20T11:39:47;100718.00;;;4.56;88.61
71504;BME280;59323;50.874;7.028;2022-11-20T11:42:18;100711.31;;;4.62;88.05
71504;BME280;59323;50.874;7.028;2022-11-20T11:44:46;100695.84;;;4.59;86.71
71504;BME280;59323;50.874;7.028;2022-11-20T11:47:33;100710.03;;;4.68;86.36
71504;BME280;59323;50.874;7.028;2022-11-20T11:52:43;100704.66;;;4.68;86.97
71504;BME280;59323;50.874;7.028;2022-11-20T11:55:39;100692.31;;;4.67;86.34
71504;BME280;59323;50.874;7.028;2022-11-20T12:04:02;100679.16;;;4.65;85.75
71504;BME280;59323;50.874;7.028;2022-11-20T12:06:30;100682.78;;;4.69;86.42
71504;BME280;59323;50.874;7.028;2022-11-20T12:09:04;100672.81;;;4.70;86.87
71504;BME280;59323;50.874;7.028;2022-11-20T12:11:37;100670.59;;;4.72;85.96
71504;BME280;59323;50.874;7.028;2022-11-20T12:14:16;100666.63;;;4.69;85.89
71504;BME280;59323;50.874;7.028;2022-11-20T12:16:45;100663.03;;;4.65;85.83
71504;BME280;59323;50.874;7.028;2022-11-20T12:19:12;100650.34;;;4.66;85.83
71504;BME280;59323;50.874;7.028;2022-11-20T12:24:29;100652.72;;;4.67;86.77
71504;BME280;59323;50.874;7.028;2022-11-20T12:30:13;100644.78;;;4.71;86.47
71504;BME280;59323;50.874;7.028;2022-11-20T12:38:09;100630.47;;;4.79;86.45
71504;BME280;59323;50.874;7.028;2022-11-20T12:40:46;100629.03;;;4.82;85.91
71504;BME280;59323;50.874;7.028;2022-11-20T12:43:21;100628.69;;;4.83;86.10
71504;BME280;59323;50.874;7.028;2022-11-20T12:46:20;100623.13;;;4.88;86.22
71504;BME280;59323;50.874;7.028;2022-11-20T12:51:47;100624.97;;;4.96;85.53
71504;BME280;59323;50.874;7.028;2022-11-20T12:57:16;100606.78;;;4.93;85.68
71504;BME280;59323;50.874;7.028;2022-11-20T13:07:33;100594.19;;;5.18;84.74
71504;BME280;59323;50.874;7.028;2022-11-20T13:10:00;100579.34;;;5.12;84.74
71504;BME280;59323;50.874;7.028;2022-11-20T13:12:38;100574.31;;;5.10;85.30
71504;BME280;59323;50.874;7.028;2022-11-20T13:18:11;100568.03;;;5.19;86.26
71504;BME280;59323;50.874;7.028;2022-11-20T13:20:43;100558.06;;;5.19;85.13
71504;BME280;59323;50.874;7.028;2022-11-20T13:23:08;100559.00;;;5.23;85.47
71504;BME280;59323;50.874;7.028;2022-11-20T13:25:36;100548.88;;;5.20;86.23
71504;BME280;59323;50.874;7.028;2022-11-20T13:28:28;100550.72;;;5.28;85.71
71504;BME280;59323;50.874;7.028;2022-11-20T13:30:55;100551.50;;;5.29;86.12
71504;BME280;59323;50.874;7.028;2022-11-20T13:33:35;100540.94;;;5.24;85.75
71504;BME280;59323;50.874;7.028;2022-11-20T13:38:48;100539.06;;;5.36;85.51
71504;BME280;59323;50.874;7.028;2022-11-20T13:41:29;100529.97;;;5.41;84.37
71504;BME280;59323;50.874;7.028;2022-11-20T13:44:15;100531.09;;;5.40;84.27
71504;BME280;59323;50.874;7.028;2022-11-20T13:46:47;100527.16;;;5.37;84.91
71504;BME280;59323;50.874;7.028;2022-11-20T13:49:34;100512.78;;;5.33;85.17
71504;BME280;59323;50.874;7.028;2022-11-20T13:55:36;100507.50;;;5.37;86.47
71504;BME280;59323;50.874;7.028;2022-11-20T14:01:10;100498.31;;;5.38;86.38
71504;BME280;59323;50.874;7.028;2022-11-20T14:03:36;100498.75;;;5.40;86.20
71504;BME280;59323;50.874;7.028;2022-11-20T14:06:10;100482.91;;;5.38;85.59
71504;BME280;59323;50.874;7.028;2022-11-20T14:08:43;100483.72;;;5.39;86.50
71504;BME280;59323;50.874;7.028;2022-11-20T14:14:01;100474.06;;;5.38;87.25
71504;BME280;59323;50.874;7.028;2022-11-20T14:16:32;100479.00;;;5.36;87.58
71504;BME280;59323;50.874;7.028;2022-11-20T14:21:42;100469.91;;;5.40;86.43
71504;BME280;59323;50.874;7.028;2022-11-20T14:24:11;100458.00;;;5.41;86.38
71504;BME280;59323;50.874;7.028;2022-11-20T14:26:41;100451.16;;;5.44;86.80
71504;BME280;59323;50.874;7.028;2022-11-20T14:29:18;100454.97;;;5.43;87.78
71504;BME280;59323;50.874;7.028;2022-11-20T14:31:48;100432.75;;;5.34;87.02
71504;BME280;59323;50.874;7.028;2022-11-20T14:34:28;100443.19;;;5.48;87.09